Tiempo atmosférico en la estación meteorológica de Puerto De La Cruz, Santa Cruz de Tenerife (25 m.)



Fecha
DESCASC
Temp. máxima en grados centígrados (hora)
DESCASC
Temp. mínima en grados centígrados (hora)
DESCASC
Temp. media en grados centígrados
DESCASC
Racha de viento máxima en m/sg (hora)
DESCASC
Velocidad máxima media en intervalos de 10 minutos(hora)
DESCASC
Precipitaciones diarias en mm
DESCASC
Precipitaciones de 00:00 a 06:00 en mm
DESCASC
Precipitaciones de 06:00 a 12:00 en mm
DESCASC
Precipitaciones de 12:00 a 18:00 en mm
DESCASC
Precipitaciones de 18:00 a 24:00 en mm
DESCASC
23-06-2019 25.4 (16:10) 19.7 (05:10) 22.6 6.11 (13:00) 2.5 (17:10) 0 0 0 0 0
22-06-2019 25.4 (13:30) 18.7 (06:00) 22.1 4.17 (04:00) 2.5 (12:50) 0 0 0 0 0
21-06-2019 26.6 (18:00) 18.9 (07:20) 22.8 5.83 (12:40) 4.44 (12:40) 0 0 0 0 0
20-06-2019 27.2 (17:30) 19.4 (00:00) 23.3 4.17 (06:50) 2.78 (13:30) 0 0 0 0 0
19-06-2019 26.5 (12:20) 20.1 (00:00) 23.3 3.33 (14:30) 2.22 (19:30) 0 0 0 0 0
18-06-2019 26.7 (13:40) 20.1 (00:00) 23.4 4.17 (06:30) 2.5 (11:00) 0 0 0 0 0
17-06-2019 26.2 (14:00) 18.1 (00:00) 22.2 5.56 (16:10) 3.06 (16:20) 0 0 0 0 0
16-06-2019 25.8 (16:30) 16.9 (00:00) 21.3 10.83 (16:20) 3.33 (15:00) 0 0 0 0 0
15-06-2019 23.5 (15:30) 16.9 (00:00) 20.2 5.56 (15:50) 4.44 (11:30) 0 0 0 0 0
14-06-2019 25.5 (16:30) 17.8 (00:00) 21.6 8.89 (15:50) 6.67 (15:50) 0 0 0 0 0
13-06-2019 26.2 (15:20) 19.1 (00:00) 22.7 6.11 (04:50) 3.61 (09:30) 0 0 0 0 0
12-06-2019 25.7 (17:00) 18.8 (00:00) 22.3 7.78 (02:50) 5.56 (19:50) 0.4 0 0.4 0 0
11-06-2019 25.4 (17:00) 17.9 (00:00) 21.6 8.89 (11:40) 6.11 (11:40) 0 0 0 0 0
10-06-2019 25 (14:50) 18.2 (00:00) 21.6 7.78 (23:00) 5.83 (16:20) 0 0 0 0 0
09-06-2019 23.9 (13:50) 18.5 (00:00) 21.2 9.44 (12:40) 7.5 (12:30) 0 0 0 0 0
08-06-2019 23.8 (14:30) 20 (00:00) 21.9 9.44 (09:20) 7.5 (09:20) 0 0 0 0 0
07-06-2019 25.9 (17:10) 17 (00:00) 21.4 6.94 (13:40) 4.72 (13:40) 0 0 0 0 0
06-06-2019 24.4 (18:20) 18.6 (00:00) 21.5 8.61 (12:30) 6.39 (12:30) 0 0 0 0 0
05-06-2019 24.8 (14:30) 19.2 (00:00) 22 8.06 (10:20) 5.83 (10:10) 0 0 0 0 0
04-06-2019 25.8 (17:30) 18.1 (00:00) 21.9 6.94 (14:30) 5.28 (14:30) 0 0 0 0 0
03-06-2019 26.3 (16:00) 19.2 (00:00) 22.8 5.56 (20:40) 4.17 (16:40) 0 0 0 0 0
02-06-2019 26.3 (16:20) 19.6 (00:00) 22.9 4.44 (14:10) 3.61 (17:40) 0 0 0 0 0
01-06-2019 25.3 (14:20) 19.5 (00:00) 22.4 6.11 (12:20) 3.89 (23:10) 0 0 0 0 0
31-05-2019 26 (17:00) 18.5 (00:00) 22.3 4.72 (15:40) 3.33 (00:10) 0 0 0 0 0
30-05-2019 25.6 (17:00) 19.2 (00:00) 22.4 5 (00:40) 3.61 (15:30) 0 0 0 0 0
29-05-2019 25.5 (16:50) 18.8 (00:00) 22.1 5.28 (22:20) 3.89 (15:20) 0 0 0 0 0
28-05-2019 25 (16:20) 18.8 (00:00) 21.9 7.22 (13:30) 5.83 (13:30) 0 0 0 0 0
27-05-2019 25.1 (15:20) 17.8 (00:00) 21.4 5.28 (17:20) 4.17 (17:50) 0 0 0 0 0

Gráficas

Temp. máximas Temp. mínimas Temp. medias Precipitaciones Rachas de viento máximas Velocidades máximas media en intervalos de 10 minutos

Datos horarios

Fecha y hora oficial Temperatura (ºC) Velocidad del viento (km/h) Dirección del viento Racha (km/h) Dirección de racha Precipitación (mm) Presión (hPa) Tendencia (hPa) Humedad (%)
2019-06-25 23:00:00 20.9 3 Sur 8 Sur 0.2 1017.9 1.6 95
2019-06-25 22:00:00 21.2 0 Calma 9 Sur 0.4 1017.2 1.6 95
2019-06-25 21:00:00 21.9 0 Calma 8 Sur 0 1016.6 0.6 93
2019-06-25 20:00:00 21.5 3 Sudoeste 9 Oeste 0 1016.3 0.5 93
2019-06-25 19:00:00 23.9 5 Nordeste 10 Nordeste 0 1015.6 -0.2 84
2019-06-25 18:00:00 22.7 0 Calma 13 Oeste 0 1016 -0.2 88
2019-06-25 17:00:00 23.8 2 Sur 13 Este 0 1015.8 -0.3 80
2019-06-25 16:00:00 23.5 6 Nordeste 10 Noroeste 0 1015.8 -0.3 87
2019-06-25 15:00:00 22.4 10 Nordeste 17 Norte 0 1016.2 0.2 85
2019-06-25 14:00:00 23.2 5 Sudeste 16 Sudeste 0 1016.1 0.2 83
2019-06-25 13:00:00 23.2 9 Este 13 Nordeste 0 1016.1 0.8 88
2019-06-25 12:00:00 22.1 3 Sur 11 Sudeste 0 1016 1 90
2019-06-25 11:00:00 21.3 2 Oeste 8 Noroeste 0.7 1015.9 1.4 97
2019-06-25 10:00:00 21.8 4 Nordeste 8 Este 0 1015.3 1.2 97
2019-06-25 09:00:00 21.4 0 Calma 5 Este 0.7 1015 1 98
2019-06-25 08:00:00 21.2 0 Calma 6 Sur 0.6 1014.5 0.6 98
2019-06-25 07:00:00 21.1 4 Sur 11 Oeste 0.8 1014.1 0.1 98
2019-06-25 06:00:00 21.2 4 Oeste 9 Oeste 1 1014 -0.2 98
2019-06-25 05:00:00 21.4 4 Oeste 12 Oeste 2 1013.9 -0.5 98
2019-06-25 04:00:00 21.9 3 Oeste 11 Oeste 1.8 1014 -0.7 98
2019-06-25 03:00:00 22.1 6 Oeste 12 Noroeste 0.1 1014.2 -0.4 98
2019-06-25 02:00:00 22.4 5 Noroeste 11 Oeste 0 1014.4 0.1 98
2019-06-25 01:00:00 23.1 5 Noroeste 10 Noroeste 0 1014.7 0.7 95
2019-06-25 00:00:00 23.8 3 Oeste 8 Noroeste 0 1014.6 1.2 88
2019-06-24 23:00:00 23.9 2 Nordeste 7 Nordeste 0 1014.3 1.4 91
2019-06-24 22:00:00 23.7 2 Norte 4 Norte 0 1014 1.1 90
2019-06-24 21:00:00 25 2 Norte 6 Nordeste 0 1013.4 0.7 83
2019-06-24 20:00:00 25.8 3 Norte 11 Noroeste 0 1012.9 0.2 80
2019-06-24 19:00:00 25.3 6 Noroeste 20 Noroeste 0 1012.9 0.2 81
2019-06-24 18:00:00 24.6 13 Oeste 18 Oeste 0 1012.7 -0.2 84
2019-06-24 17:00:00 25.8 6 Noroeste 12 Noroeste 0 1012.7 -0.6 78
2019-06-24 16:00:00 26.8 6 Nordeste 10 Nordeste 0 1012.7 -0.6 76
2019-06-24 15:00:00 25.3 5 Norte 10 Norte 0 1012.9 -0.4 81
2019-06-24 14:00:00 25.1 3 Norte 10 Nordeste 0 1013.3 0.1 81
2019-06-24 13:00:00 24.7 4 Noroeste 9 Noroeste 0 1013.3 0.2 84
2019-06-24 12:00:00 24.6 5 Norte 8 Norte 0 1013.3 0.2 85
2019-06-24 11:00:00 23.7 3 Noroeste 6 Norte 0 1013.2 0.4 84
2019-06-24 10:00:00 23.7 2 Norte 6 Nordeste 0 1013.1 0.2 83
2019-06-24 09:00:00 23.3 2 Noroeste 5 Noroeste 0 1013.1 0.5 84
2019-06-24 08:00:00 22.6 0 Calma 6 Sur 0 1012.8 0 85
2019-06-24 07:00:00 22 0 Calma 2 Sur 0 1012.9 -0.1 85
2019-06-24 06:00:00 22.3 0 Calma 5 Sur 0 1012.6 -0.8 84
2019-06-24 05:00:00 22.1 0 Calma 5 Sur 0 1012.8 -1.4 82
2019-06-24 04:00:00 22 0 Calma 6 Sur 0 1013 -1.5 82
2019-06-24 03:00:00 22.5 0 Calma 5 Sur 0 1013.4 -0.9 86
2019-06-24 02:00:00 22.8 2 Sur 6 Sudoeste 0 1014.2 -0.1 93
2019-06-24 01:00:00 22.8 3 Oeste 9 Noroeste 0 1014.5 0.5 94
2019-06-24 00:00:00 23.2 0 Calma 7 Noroeste 0 1014.3 1.2 92
2019-06-23 23:00:00 23.1 3 Oeste 9 Noroeste 0 1014.3 1.8 93
2019-06-23 22:00:00 23.2 3 Oeste 8 Noroeste 0 1014 1.5 93
2019-06-23 21:00:00 23.4 3 Noroeste 8 Noroeste 0 1013.1 0.4 90
2019-06-23 20:00:00 24.6 3 Noroeste 14 Noroeste 0 1012.5 -0.7 85
2019-06-23 19:00:00 24.3 7 Noroeste 11 Noroeste 0 1012.5 -1 87
2019-06-23 18:00:00 24.8 6 Noroeste 15 Noroeste 0 1012.7 -0.9 84
2019-06-23 17:00:00 24.6 9 Oeste 15 Noroeste 0 1013.2 -1.1 83
2019-06-23 16:00:00 24.9 6 Noroeste 12 Noroeste 0 1013.5 -0.9 77
2019-06-23 15:00:00 24.4 5 Noroeste 11 Noroeste 0 1013.6 -0.9 83
2019-06-23 14:00:00 23.8 7 Noroeste 13 Noroeste 0 1014.3 0.4 84
2019-06-23 13:00:00 23.5 5 Noroeste 22 Noroeste 0 1014.4 0.3 81
2019-06-23 12:00:00 23.8 4 Noroeste 8 Noroeste 0 1014.5 0.3 70
2019-06-23 11:00:00 23.2 3 Norte 6 Norte 0 1013.9 0 70
2019-06-23 10:00:00 23.3 3 Norte 8 Noroeste 0 1014.1 -0.3 72
2019-06-23 09:00:00 23.2 3 Nordeste 6 Sur 0 1014.2 -0.2 58
2019-06-23 08:00:00 21.3 6 Sur 14 Sur 0 1013.9 -0.4 55
2019-06-23 07:00:00 19.8 6 Sur 11 Sur 0 1014.4 0.1 73
2019-06-23 06:00:00 19.8 4 Sur 10 Sur 0 1014.4 -0.5 73
2019-06-23 05:00:00 19.9 3 Sur 10 Sur 0 1014.3 -1.7 72
2019-06-23 04:00:00 20 4 Sur 11 Sudeste 0 1014.3 -1.8 71
2019-06-23 03:00:00 20.8 3 Sur 12 Sudeste 0 1014.9 -1.7 75
2019-06-23 02:00:00 21.6 2 Sudoeste 7 Sur 0 1016 -0.3 75
2019-06-23 01:00:00 21.9 3 Sur 11 Sudeste 0 1016.1 0.1 77
2019-06-23 00:00:00 21.8 5 Sur 12 Sur 0 1016.6 1.4 78
2019-06-22 23:00:00 21.9 0 Calma 3 Sudeste 0 1016.3 1.3 86
2019-06-22 22:00:00 22.1 3 Noroeste 8 Noroeste 0 1016 1.1 86
2019-06-22 21:00:00 23.3 0 Calma 6 Norte 0 1015.2 0.3 78
2019-06-22 20:00:00 24 5 Nordeste 8 Norte 0 1015 -0.3 76
2019-06-22 19:00:00 24.6 5 Norte 10 Norte 0 1014.9 -0.9 72
2019-06-22 18:00:00 24.5 5 Norte 11 Norte 0 1014.9 -1.3 72
2019-06-22 17:00:00 24.5 6 Norte 10 Norte 0 1015.3 -1.3 73
2019-06-22 16:00:00 24 6 Norte 12 Este 0 1015.8 -0.7 75
2019-06-22 15:00:00 23.8 7 Nordeste 12 Nordeste 0 1016.2 -0.5 75
2019-06-22 14:00:00 24 9 Nordeste 14 Norte 0 1016.6 -0.1 75
2019-06-22 13:00:00 24.3 9 Nordeste 12 Nordeste 0 1016.5 -0.6 73
2019-06-22 12:00:00 24.6 7 Nordeste 12 Este 0 1016.7 -0.6 74
2019-06-22 11:00:00 24.3 6 Nordeste 11 Nordeste 0 1016.7 -0.7 70
2019-06-22 10:00:00 23.5 5 Nordeste 8 Norte 0 1017.1 0.1 71
2019-06-22 09:00:00 23.1 3 Este 9 Sudeste 0 1017.3 0.6 68
2019-06-22 08:00:00 20 6 Sur 13 Sur 0 1017.4 0.5 78
2019-06-22 07:00:00 18.9 6 Sur 14 Sudeste 0 1017 0 79
2019-06-22 06:00:00 18.7 7 Sur 13 Sudeste 0 1016.7 -0.4 79
2019-06-22 05:00:00 19.2 7 Sur 13 Sur 0 1016.9 -0.9 76
2019-06-22 04:00:00 19.2 9 Sur 15 Sudeste 0 1017 -1.1 77
2019-06-22 03:00:00 19.7 5 Sur 12 Sudeste 0 1017.1 -0.9 81
2019-06-22 02:00:00 19.6 6 Sur 11 Sudeste 0 1017.8 -0.1 78
2019-06-22 01:00:00 19.9 6 Sur 12 Sur 0 1018.1 0.7 79
2019-06-22 00:00:00 20.7 3 Sur 8 Sudeste 0 1018 0.9 81
2019-06-21 23:00:00 21.3 0 Calma 8 Este 0 1017.9 1.2 82
2019-06-21 22:00:00 22.1 5 Nordeste 10 Nordeste 0 1017.4 1.1 82
2019-06-21 21:00:00 23.5 5 Nordeste 12 Nordeste 0 1017.1 0.7 76
2019-06-21 20:00:00 24.9 9 Nordeste 14 Nordeste 0 1016.7 -0.1 71
2019-06-21 19:00:00 25.2 11 Nordeste 15 Nordeste 0 1016.3 -0.8 71
2019-06-21 18:00:00 25.7 10 Nordeste 14 Nordeste 0 1016.4 -0.9 67
2019-06-21 17:00:00 25.5 12 Nordeste 15 Nordeste 0 1016.8 -0.7 68
2019-06-21 16:00:00 25.4 9 Nordeste 12 Nordeste 0 1017.1 -0.3 70
2019-06-21 15:00:00 25.3 10 Nordeste 17 Nordeste 0 1017.3 -0.3 69
2019-06-21 14:00:00 25.3 13 Nordeste 18 Este 0 1017.5 -0.2 72
2019-06-21 13:00:00 25.6 15 Nordeste 21 Nordeste 0 1017.4 -0.6 72
2019-06-21 12:00:00 25.3 10 Nordeste 15 Nordeste 0 1017.6 -0.3 73
2019-06-21 11:00:00 24.5 9 Nordeste 15 Nordeste 0 1017.7 -0.3 74
2019-06-21 10:00:00 23.8 10 Nordeste 13 Nordeste 0 1018 0.1 76
2019-06-21 09:00:00 23 6 Este 11 Este 0 1017.9 0.4 75
2019-06-21 08:00:00 20.3 5 Sur 15 Sur 0 1018 0.5 73
2019-06-21 07:00:00 19.1 6 Sur 13 Sudeste 0 1017.9 0.2 77
2019-06-21 06:00:00 19.4 5 Sur 14 Sur 0 1017.5 -0.5 76
2019-06-21 05:00:00 19.4 8 Sur 14 Sur 0 1017.5 -1 76
2019-06-21 04:00:00 19.5 6 Sur 11 Sudeste 0 1017.7 -1.1 77
2019-06-21 03:00:00 20.1 6 Sur 11 Sudeste 0 1018 -0.8 76
2019-06-21 02:00:00 20.5 3 Sur 10 Sudeste 0 1018.5 0.1 76
2019-06-21 01:00:00 20.9 3 Sudeste 10 Sur 0 1018.8 1.1 78
2019-06-21 00:00:00 21.3 4 Sur 13 Sur 0 1018.8 1.7 79
2019-06-20 23:00:00 22.3 5 Este 8 Nordeste 0 1018.4 1.7 86
2019-06-20 22:00:00 22.8 5 Este 12 Nordeste 0 1017.7 1.1 82
2019-06-20 21:00:00 24 9 Nordeste 14 Nordeste 0 1017.1 0.6 79
2019-06-20 20:00:00 25.9 9 Nordeste 12 Nordeste 0 1016.7 0 72
2019-06-20 19:00:00 25.7 9 Nordeste 12 Nordeste 0 1016.6 -0.1 73
2019-06-20 18:00:00 26.6 7 Nordeste 11 Nordeste 0 1016.5 -0.2 71
2019-06-20 17:00:00 25.5 7 Nordeste 13 Norte 0 1016.7 -0.2 73
2019-06-20 16:00:00 25.6 9 Nordeste 14 Nordeste 0 1016.7 -0.7 72
2019-06-20 15:00:00 26 8 Nordeste 13 Nordeste 0 1016.7 -0.8 71
2019-06-20 14:00:00 26.2 8 Nordeste 14 Nordeste 0 1016.9 -0.6 72
2019-06-20 13:00:00 25.5 8 Nordeste 11 Nordeste 0 1017.4 0 75
2019-06-20 12:00:00 25.4 8 Nordeste 13 Nordeste 0 1017.5 -0.2 74
2019-06-20 11:00:00 24.7 7 Nordeste 11 Nordeste 0 1017.5 -0.2 75
2019-06-20 10:00:00 24.2 4 Nordeste 8 Este 0 1017.4 -0.1 74
2019-06-20 09:00:00 22.8 0 Calma 11 Sur 0 1017.7 0.4 70
2019-06-20 08:00:00 19.7 6 Sur 13 Sudeste 0 1017.7 0.3 72
2019-06-20 07:00:00 19.7 7 Sur 15 Sudeste 0 1017.5 -0.1 73
2019-06-20 06:00:00 19.5 4 Sur 12 Sur 0 1017.3 -0.5 76
2019-06-20 05:00:00 19.4 5 Sur 10 Sur 0 1017.4 -0.9 78
2019-06-20 04:00:00 19.9 2 Sudeste 9 Sur 0 1017.6 -0.8 78
2019-06-20 03:00:00 20.2 3 Sur 9 Sur 0 1017.8 -0.8 77
2019-06-20 02:00:00 20.7 4 Sudeste 12 Sudeste 0 1018.3 0.1 77
2019-06-20 01:00:00 21.9 2 Este 10 Nordeste 0 1018.4 0.8 84
2019-06-20 00:00:00 22 6 Nordeste 11 Norte 0 1018.6 1.6 90
2019-06-19 23:00:00 22.4 4 Nordeste 7 Nordeste 0 1018.2 1.9 90
2019-06-19 22:00:00 23 5 Nordeste 7 Nordeste 0 1017.6 1.2 86
2019-06-19 21:00:00 23.4 5 Nordeste 9 Nordeste 0 1017 0.6 84
2019-06-19 20:00:00 23.5 7 Norte 10 Norte 0 1016.3 -0.5 81
2019-06-19 19:00:00 24 4 Norte 10 Norte 0 1016.4 -0.6 82
2019-06-19 18:00:00 24.3 5 Norte 11 Nordeste 0 1016.4 -0.7 78
2019-06-19 17:00:00 24.3 6 Nordeste 10 Norte 0 1016.8 -0.5 77
2019-06-19 16:00:00 24.4 3 Norte 10 Nordeste 0 1017 -0.6 72
2019-06-19 15:00:00 24.2 4 Norte 12 Norte 0 1017.1 -0.3 78
2019-06-19 14:00:00 24.7 6 Nordeste 12 Nordeste 0 1017.3 0 76
2019-06-19 13:00:00 24 7 Nordeste 11 Norte 0 1017.6 0.8 77
2019-06-19 12:00:00 24.7 6 Nordeste 10 Nordeste 0 1017.4 0.9 78
2019-06-19 11:00:00 24.3 3 Nordeste 8 Nordeste 0 1017.3 0.6 76
2019-06-19 10:00:00 23.7 3 Nordeste 6 Nordeste 0 1016.8 0.5 76
2019-06-19 09:00:00 23.3 2 Nordeste 8 Sur 0 1016.5 0.6 75
2019-06-19 08:00:00 20.4 4 Sur 9 Sur 0 1016.7 0.8 77
2019-06-19 07:00:00 20.5 2 Sur 6 Sur 0 1016.3 0.4 78
2019-06-19 06:00:00 21.5 0 Calma 6 Sur 0 1015.9 -0.2 77
2019-06-19 05:00:00 21.6 0 Calma 6 Sudeste 0 1015.9 -0.5 75
2019-06-19 04:00:00 21.6 0 Calma 8 Sur 0 1015.9 -0.9 78
2019-06-19 03:00:00 21.6 5 Sur 10 Sur 0 1016.1 -0.8 77
2019-06-19 02:00:00 21.5 0 Calma 4 Sudoeste 0 1016.4 -0.2 85
2019-06-19 01:00:00 22.3 0 Calma 4 Este 0 1016.8 0.4 90
2019-06-19 00:00:00 22.5 2 Este 5 Nordeste 0 1016.9 0.8 90
2019-06-18 23:00:00 22.8 4 Nordeste 5 Nordeste 0 1016.6 0.8 88
2019-06-18 22:00:00 22.7 0 Calma 3 Norte 0 1016.4 0.7 89
2019-06-18 21:00:00 22.8 0 Calma 4 Norte 0 1016.1 0.4 86
2019-06-18 20:00:00 23.7 0 Calma 5 Nordeste 0 1015.8 0.1 83
2019-06-18 19:00:00 22.9 3 Norte 6 Norte 0 1015.7 0.4 87
2019-06-18 18:00:00 23.5 4 Norte 10 Norte 0 1015.7 0.1 90
2019-06-18 17:00:00 24 4 Noroeste 9 Noroeste 0 1015.7 0 85
2019-06-18 16:00:00 24.3 5 Noroeste 11 Noroeste 0 1015.3 -0.5 81
2019-06-18 15:00:00 23.7 7 Noroeste 13 Noroeste 0 1015.6 -0.3 84
2019-06-18 14:00:00 24.9 3 Norte 8 Nordeste 0 1015.7 0 77
2019-06-18 13:00:00 24.9 3 Noroeste 9 Este 0 1015.8 0.3 81
2019-06-18 12:00:00 25.8 7 Nordeste 10 Este 0 1015.9 1 72
2019-06-18 11:00:00 24.5 9 Este 13 Este 0 1015.7 0.9 79
2019-06-18 10:00:00 23.7 4 Nordeste 8 Este 0 1015.5 0.6 75
2019-06-18 09:00:00 24.1 6 Este 12 Sudeste 0 1014.9 0.2 69
2019-06-18 08:00:00 21.9 4 Sudeste 12 Sur 0 1014.8 0.3 76
2019-06-18 07:00:00 20.6 5 Sur 15 Sur 0 1014.9 0.5 79
2019-06-18 06:00:00 20.1 6 Sur 12 Sur 0 1014.7 -0.1 78
2019-06-18 05:00:00 20.5 4 Sur 10 Sur 0 1014.5 -1 76
2019-06-18 04:00:00 20.7 0 Calma 6 Sur 0 1014.4 -1.9 76
2019-06-18 03:00:00 21.2 4 Sur 7 Este 0 1014.8 -1.6 77
2019-06-18 02:00:00 21.3 0 Calma 8 Sur 0 1015.5 -0.8 82
2019-06-18 01:00:00 21.3 0 Calma 6 Nordeste 0 1016.3 0.2 91
2019-06-18 00:00:00 21.9 5 Este 8 Este 0 1016.4 0.7 92
2019-06-17 23:00:00 22.1 0 Calma 6 Noroeste 0 1016.3 0.9 91
2019-06-17 22:00:00 22.3 2 Oeste 11 Noroeste 0 1016.1 0.6 91
2019-06-17 21:00:00 22.9 6 Sudoeste 14 Oeste 0 1015.7 0.3 90
2019-06-17 20:00:00 23.4 6 Oeste 11 Oeste 0 1015.4 -0.1 88
2019-06-17 19:00:00 22.5 8 Noroeste 15 Oeste 0 1015.5 -0.2 89
2019-06-17 18:00:00 23.3 5 Noroeste 15 Noroeste 0 1015.4 -0.6 86
2019-06-17 17:00:00 23.1 8 Noroeste 20 Noroeste 0 1015.5 -0.4 82
2019-06-17 16:00:00 23.4 8 Noroeste 13 Noroeste 0 1015.7 -1.1 80
2019-06-17 15:00:00 23.6 8 Noroeste 13 Noroeste 0 1016 -0.5 77
2019-06-17 14:00:00 25.5 5 Nordeste 9 Noroeste 0 1015.9 -0.9 66
2019-06-17 13:00:00 23.7 3 Norte 9 Este 0 1016.8 -0.1 65
2019-06-17 12:00:00 24.6 4 Nordeste 9 Este 0 1016.5 -0.1 62
2019-06-17 11:00:00 22 4 Noroeste 8 Noroeste 0 1016.8 0.2 68
2019-06-17 10:00:00 21.2 3 Noroeste 10 Oeste 0 1016.9 0.1 69
2019-06-17 09:00:00 21.1 3 Noroeste 9 Noroeste 0 1016.6 -0.3 68
2019-06-17 08:00:00 19.9 3 Sur 10 Sudeste 0 1016.6 -0.4 69
2019-06-17 07:00:00 18.2 6 Sur 12 Sur 0 1016.8 -0.7 73
2019-06-17 06:00:00 18.3 5 Sur 10 Sur 0 1016.9 -0.3 73
2019-06-17 05:00:00 18.4 4 Sur 7 Sur 0 1017 -1.1 75
2019-06-17 04:00:00 19.1 2 Sudoeste 8 Sudoeste 0 1017.5 -1.2 77
2019-06-17 03:00:00 18.9 3 Sur 7 Sur 0 1017.2 -2 77
2019-06-17 02:00:00 19.5 2 Sur 6 Sur 0 1018.1 -0.4 80
2019-06-17 01:00:00 20 0 Calma 4 Sur 0 1018.7 0.6 83
2019-06-17 00:00:00 20.4 0 Calma 4 Nordeste 0 1019.2 1.7 84
2019-06-16 23:00:00 20.9 3 Nordeste 9 Nordeste 0 1018.5 1.3 83
2019-06-16 22:00:00 21 6 Este 11 Este 0 1018.1 1 82
2019-06-16 21:00:00 22.4 8 Nordeste 11 Nordeste 0 1017.5 0.5 75
2019-06-16 20:00:00 24.2 8 Nordeste 13 Nordeste 0 1017.2 0 69
2019-06-16 19:00:00 24.4 9 Nordeste 13 Este 0 1017.1 -0.2 67
2019-06-16 18:00:00 25.5 10 Nordeste 14 Nordeste 0 1017 -0.5 64
2019-06-16 17:00:00 25.2 11 Nordeste 39 Nordeste 0 1017.2 -0.8 63
2019-06-16 16:00:00 24.6 12 Nordeste 17 Nordeste 0 1017.3 -1.1 63
2019-06-16 15:00:00 24.8 12 Nordeste 16 Nordeste 0 1017.5 -0.9 63
2019-06-16 14:00:00 24.5 10 Nordeste 14 Nordeste 0 1018 -0.4 63
2019-06-16 13:00:00 23.7 9 Nordeste 13 Nordeste 0 1018.4 0.1 66
2019-06-16 12:00:00 23.6 8 Nordeste 11 Nordeste 0 1018.4 0.1 66
2019-06-16 11:00:00 22.9 8 Nordeste 12 Nordeste 0 1018.4 0.1 69
2019-06-16 10:00:00 21.7 7 Nordeste 12 Nordeste 0 1018.3 0.3 70
2019-06-16 09:00:00 21 3 Nordeste 9 Sur 0 1018.3 0.5 65
2019-06-16 08:00:00 18.3 4 Sur 9 Sur 0 1018.3 0.6 73
2019-06-16 07:00:00 17 5 Sur 10 Sudeste 0 1018 0.3 74
2019-06-16 06:00:00 17.1 3 Sur 12 Sudeste 0 1017.8 -0.3 75
2019-06-16 05:00:00 17 6 Sur 12 Sur 0 1017.7 -0.9 73
2019-06-16 04:00:00 17.5 8 Sur 13 Sur 0 1017.7 -1.2 73
2019-06-16 03:00:00 17.7 5 Sur 12 Sur 0 1018.1 -0.8 72
2019-06-16 02:00:00 17.9 6 Sur 12 Sur 0 1018.6 0.1 74
2019-06-16 01:00:00 18.3 0 Calma 8 Sur 0 1018.9 1 74
2019-06-16 00:00:00 19 3 Sur 8 Sur 0 1018.9 1.5 76
2019-06-15 23:00:00 19.6 2 Sur 11 Nordeste 0 1018.5 1.5 77
2019-06-15 22:00:00 20.4 8 Nordeste 10 Nordeste 0 1017.9 0.9 77
2019-06-15 21:00:00 21.6 6 Nordeste 9 Nordeste 0 1017.4 0.6 72
2019-06-15 20:00:00 23.2 3 Nordeste 9 Norte 0 1017 -0.2 68
2019-06-15 19:00:00 21.8 8 Nordeste 13 Nordeste 0 1017 -0.4 73
2019-06-15 18:00:00 22.4 9 Nordeste 15 Nordeste 0 1016.8 -0.7 71
2019-06-15 17:00:00 22.6 13 Nordeste 19 Nordeste 0 1017.2 -0.7 72
2019-06-15 16:00:00 22.8 15 Nordeste 20 Nordeste 0 1017.4 -0.7 71
2019-06-15 15:00:00 23 15 Nordeste 19 Nordeste 0 1017.5 -0.9 70
2019-06-15 14:00:00 23.1 10 Nordeste 19 Nordeste 0 1017.9 -0.2 70
2019-06-15 13:00:00 22.3 14 Nordeste 20 Nordeste 0 1018.1 0.4 74
2019-06-15 12:00:00 22.9 14 Nordeste 20 Nordeste 0 1018.4 0.9 68
2019-06-15 11:00:00 22.3 8 Nordeste 14 Nordeste 0 1018.1 0.4 64
2019-06-15 10:00:00 22.1 6 Nordeste 10 Nordeste 0 1017.7 0 66
2019-06-15 09:00:00 21 6 Nordeste 9 Nordeste 0 1017.5 0.1 69
2019-06-15 08:00:00 18.8 4 Sur 13 Sur 0 1017.7 -0.1 71
2019-06-15 07:00:00 17.6 7 Sur 15 Sur 0 1017.7 -0.3 71
2019-06-15 06:00:00 16.9 8 Sur 17 Sudeste 0 1017.4 -0.9 73
2019-06-15 05:00:00 17 8 Sur 15 Sur 0 1017.8 -0.8 73
2019-06-15 04:00:00 17.3 3 Sur 12 Sur 0 1018 -0.9 73
2019-06-15 03:00:00 17.6 7 Sur 13 Sudeste 0 1018.3 -0.7 71
2019-06-15 02:00:00 17.9 5 Sur 9 Sudeste 0 1018.6 -0.1 71
2019-06-15 01:00:00 18.7 4 Sur 9 Sur 0 1018.9 0.7 69
2019-06-15 00:00:00 19.2 0 Calma 17 Nordeste 0 1019 1.4 73
2019-06-14 23:00:00 20.1 17 Nordeste 26 Nordeste 0 1018.7 1.5 82
2019-06-14 22:00:00 20.4 17 Nordeste 21 Nordeste 0 1018.2 1.3 82
2019-06-14 21:00:00 20.9 16 Nordeste 22 Nordeste 0 1017.6 0.7 80
2019-06-14 20:00:00 21.4 15 Nordeste 22 Nordeste 0 1017.2 0.5 77
2019-06-14 19:00:00 22.2 16 Nordeste 22 Nordeste 0 1016.9 0.2 72
2019-06-14 18:00:00 23.5 15 Nordeste 25 Nordeste 0 1016.9 -0.1 64
2019-06-14 17:00:00 24.4 20 Nordeste 28 Nordeste 0 1016.7 -0.6 62
2019-06-14 16:00:00 24.3 20 Nordeste 32 Nordeste 0 1016.7 -1 63
2019-06-14 15:00:00 23.5 20 Nordeste 28 Nordeste 0 1017 -1 65
2019-06-14 14:00:00 23.9 22 Nordeste 27 Nordeste 0 1017.3 -0.5 68
2019-06-14 13:00:00 23.5 20 Nordeste 26 Nordeste 0 1017.7 0.1 63
2019-06-14 12:00:00 22.2 17 Nordeste 23 Nordeste 0 1018 1.1 67
2019-06-14 11:00:00 22.2 17 Nordeste 21 Nordeste 0 1017.8 1 67
2019-06-14 10:00:00 21.4 7 Nordeste 13 Nordeste 0 1017.6 1 75
2019-06-14 09:00:00 21.7 6 Nordeste 10 Nordeste 0 1016.9 0.4 68
2019-06-14 08:00:00 19.9 2 Este 6 Este 0 1016.8 1.1 75
2019-06-14 07:00:00 19.2 0 Calma 8 Sur 0 1016.6 0.6 74
2019-06-14 06:00:00 19.3 3 Sudeste 10 Sur 0 1016.5 0.2 73
2019-06-14 05:00:00 19 2 Sur 8 Sur 0 1015.7 -1.2 72
2019-06-14 04:00:00 18.9 2 Sur 15 Sudeste 0 1016 -1.1 69
2019-06-14 03:00:00 17.8 6 Sudeste 13 Sur 0 1016.3 -0.9 73
2019-06-14 02:00:00 18.3 5 Sur 12 Sudeste 0 1016.9 -0.4 76
2019-06-14 01:00:00 19.8 5 Este 14 Nordeste 0 1017.1 0.5 77
2019-06-14 00:00:00 20.3 9 Nordeste 14 Nordeste 0 1017.2 1.4 80
2019-06-13 23:00:00 20.7 12 Nordeste 17 Nordeste 0 1017.3 2.1 77
2019-06-13 22:00:00 21 12 Nordeste 16 Este 0 1016.6 1.2 77
2019-06-13 21:00:00 21.5 10 Nordeste 15 Nordeste 0 1015.8 0.5 75
2019-06-13 20:00:00 23.2 10 Nordeste 15 Nordeste 0 1015.2 0.3 68
2019-06-13 19:00:00 21.5 4 Norte 10 Nordeste 0 1015.4 0.8 73
2019-06-13 18:00:00 21.8 6 Norte 11 Norte 0 1015.3 0.4 70
2019-06-13 17:00:00 23.5 8 Nordeste 14 Nordeste 0 1014.9 -0.7 64
2019-06-13 16:00:00 25.3 8 Nordeste 13 Nordeste 0 1014.6 -1.4 57
2019-06-13 15:00:00 25 6 Nordeste 15 Norte 0 1014.9 -1 59
2019-06-13 14:00:00 22.8 7 Nordeste 12 Norte 0 1015.6 0.1 64
2019-06-13 13:00:00 21.7 7 Norte 13 Norte 0 1016 0.9 68
2019-06-13 12:00:00 22.7 3 Nordeste 10 Nordeste 0 1015.9 1.1 65
2019-06-13 11:00:00 21.9 7 Nordeste 15 Nordeste 0 1015.5 1.3 68
2019-06-13 10:00:00 21.1 9 Nordeste 18 Nordeste 0 1015.1 1 77
2019-06-13 09:00:00 20.6 8 Nordeste 10 Nordeste 0 1014.8 0.7 76
2019-06-13 08:00:00 19.9 3 Sur 9 Sur 0 1014.2 0 73
2019-06-13 07:00:00 19.9 2 Nordeste 12 Sur 0 1014.1 0.1 73
2019-06-13 06:00:00 19.7 5 Sur 14 Sudeste 0 1014.1 -0.3 73
2019-06-13 05:00:00 19.3 10 Norte 22 Norte 0 1014.2 -0.7 76
2019-06-13 04:00:00 19.5 0 Calma 10 Sur 0 1014 -1.4 71
2019-06-13 03:00:00 20 0 Calma 7 Nordeste 0 1014.4 -1.1 72
2019-06-13 02:00:00 20.1 4 Este 9 Este 0 1014.9 -0.2 81
2019-06-13 01:00:00 20.1 4 Nordeste 12 Nordeste 0 1015.4 0.8 83
2019-06-13 00:00:00 20.1 7 Nordeste 12 Nordeste 0 1015.5 1.5 84
2019-06-12 23:00:00 20.3 7 Nordeste 13 Nordeste 0 1015.1 1.9 81
2019-06-12 22:00:00 20.8 11 Nordeste 18 Nordeste 0 1014.6 2.1 81
2019-06-12 21:00:00 21.1 14 Nordeste 23 Nordeste 0 1014 1.3 83
2019-06-12 20:00:00 21.7 17 Nordeste 27 Nordeste 0 1013.2 0.3 81
2019-06-12 19:00:00 23.8 12 Nordeste 17 Nordeste 0 1012.5 -0.8 74
2019-06-12 18:00:00 24.6 8 Nordeste 17 Nordeste 0 1012.7 -1.2 63
2019-06-12 17:00:00 25.5 9 Nordeste 13 Nordeste 0 1012.9 -1.4 66
2019-06-12 16:00:00 24.8 7 Nordeste 10 Nordeste 0 1013.3 -1.3 68
2019-06-12 15:00:00 24.3 5 Nordeste 13 Este 0 1013.9 -1.1 68
2019-06-12 14:00:00 22.8 6 Nordeste 15 Nordeste 0 1014.3 -0.9 71
2019-06-12 13:00:00 21.9 8 Este 16 Este 0 1014.6 -0.3 83
2019-06-12 12:00:00 20.6 4 Este 17 Sudeste 0 1015 0.1 91
2019-06-12 11:00:00 19.9 9 Este 18 Nordeste 0.3 1015.2 1.1 96
2019-06-12 10:00:00 19.7 5 Nordeste 16 Este 0.1 1014.9 0.8 97
2019-06-12 09:00:00 19.9 14 Nordeste 19 Nordeste 0 1014.9 0.9 94
2019-06-12 08:00:00 19.7 6 Sur 14 Nordeste 0 1014.1 0.4 94
2019-06-12 07:00:00 19.2 0 Calma 12 Sur 0 1014.1 0 88
2019-06-12 06:00:00 19.2 6 Este 27 Nordeste 0 1014 -1.1 96
2019-06-12 05:00:00 19.3 4 Nordeste 10 Nordeste 0 1013.7 -1.6 86
2019-06-12 04:00:00 19.2 5 Sur 16 Este 0 1014.1 -1.5 95
2019-06-12 03:00:00 19.5 16 Este 28 Este 0 1015.1 -0.8 95
2019-06-12 02:00:00 19.6 9 Este 23 Este 0 1015.3 -0.6 94
2019-06-12 01:00:00 20.2 4 Sudeste 13 Este 0 1015.6 0.1 91
2019-06-12 00:00:00 20.5 8 Este 21 Nordeste 0 1015.9 0.4 91
2019-06-11 23:00:00 21 10 Nordeste 17 Nordeste 0 1015.9 0.6 91
2019-06-11 22:00:00 21.3 8 Nordeste 12 Nordeste 0 1015.5 0.6 88
2019-06-11 21:00:00 21.9 3 Nordeste 15 Norte 0 1015.5 0.3 86
2019-06-11 20:00:00 21.1 14 Norte 17 Norte 0 1015.3 0 88
2019-06-11 19:00:00 23.4 8 Nordeste 15 Nordeste 0 1014.9 -0.7 77
2019-06-11 18:00:00 22.1 8 Este 28 Nordeste 0 1015.2 -0.9 85
2019-06-11 17:00:00 24.8 8 Nordeste 12 Nordeste 0 1015.3 -1.1 73
2019-06-11 16:00:00 24.6 9 Nordeste 17 Nordeste 0 1015.6 -1.1 75
2019-06-11 15:00:00 23 6 Nordeste 19 Nordeste 0 1016.1 -0.7 80
2019-06-11 14:00:00 24.6 15 Nordeste 19 Nordeste 0 1016.4 -0.1 78
2019-06-11 13:00:00 22.6 9 Norte 18 Norte 0 1016.7 -0.4 81
2019-06-11 12:00:00 23.5 14 Nordeste 32 Norte 0 1016.8 -0.5 76
2019-06-11 11:00:00 23.7 9 Nordeste 22 Este 0 1016.5 -1.4 68
2019-06-11 10:00:00 20.9 10 Este 28 Nordeste 0 1017.1 -1 82
2019-06-11 09:00:00 20.7 6 Nordeste 18 Sur 0 1017.3 -0.5 75
2019-06-11 08:00:00 18.6 6 Sur 13 Sudeste 0 1017.9 0 82
2019-06-11 07:00:00 17.9 6 Sur 14 Sur 0 1018.1 -0.1 83
2019-06-11 06:00:00 18.9 6 Este 22 Este 0 1017.8 -0.7 87
2019-06-11 05:00:00 18.3 2 Sur 12 Sudeste 0 1017.9 -1.5 80
2019-06-11 04:00:00 18.8 5 Sudeste 10 Sur 0 1018.2 -1.5 78
2019-06-11 03:00:00 19.1 4 Sudeste 13 Este 0 1018.5 -1.6 77
2019-06-11 02:00:00 19.4 3 Sudeste 19 Nordeste 0 1019.4 -0.5 78
2019-06-11 01:00:00 19.9 12 Este 21 Nordeste 0 1019.7 0.3 86
2019-06-11 00:00:00 20.1 15 Nordeste 25 Nordeste 0 1020.1 1.4 87
2019-06-10 23:00:00 20.1 18 Nordeste 28 Nordeste 0 1019.9 1.2 89
2019-06-10 22:00:00 20.6 15 Nordeste 23 Nordeste 0 1019.4 0.9 87
2019-06-10 21:00:00 20.9 14 Este 26 Este 0 1018.7 0 85
2019-06-10 20:00:00 21.2 16 Este 26 Nordeste 0 1018.7 -0.2 84
2019-06-10 19:00:00 22.4 13 Este 18 Nordeste 0 1018.5 -0.4 77
2019-06-10 18:00:00 23 13 Nordeste 18 Nordeste 0 1018.7 -0.3 76
2019-06-10 17:00:00 22.8 15 Nordeste 27 Nordeste 0 1018.9 -0.9 74
2019-06-10 16:00:00 24.1 19 Nordeste 26 Nordeste 0 1018.9 -1.5 73
2019-06-10 15:00:00 24.6 13 Nordeste 17 Este 0 1019 -1.7 69
2019-06-10 14:00:00 24.4 10 Nordeste 14 Nordeste 0 1019.8 -0.9 69
2019-06-10 13:00:00 23.4 11 Nordeste 14 Este 0 1020.4 -0.5 72
2019-06-10 12:00:00 22.6 11 Nordeste 18 Nordeste 0 1020.7 -0.5 72
2019-06-10 11:00:00 22.9 15 Nordeste 21 Nordeste 0 1020.7 -0.4 69
2019-06-10 10:00:00 21.6 18 Nordeste 24 Nordeste 0 1020.9 0 76
2019-06-10 09:00:00 20.1 10 Este 23 Nordeste 0 1021.2 0.4 79
2019-06-10 08:00:00 19.5 6 Sudeste 17 Sur 0 1021.1 0.1 74
2019-06-10 07:00:00 19 5 Sudeste 15 Sudeste 0 1020.9 -0.3 75
2019-06-10 06:00:00 18.7 6 Sudeste 13 Sudeste 0 1020.8 -0.7 77
2019-06-10 05:00:00 18.3 5 Sur 12 Sudeste 0 1021 -1 79
2019-06-10 04:00:00 19.1 4 Sudeste 19 Este 0 1021.2 -1.2 74
2019-06-10 03:00:00 19.3 5 Sudeste 14 Sur 0 1021.5 -0.9 76
2019-06-10 02:00:00 18.9 5 Sudeste 14 Sur 0 1022 -0.1 77
2019-06-10 01:00:00 19.2 6 Sudeste 13 Sudeste 0 1022.4 0.7 76
2019-06-10 00:00:00 19.6 6 Este 26 Nordeste 0 1022.4 1 82
2019-06-09 23:00:00 20 20 Nordeste 25 Nordeste 0 1022.1 1.2 84
2019-06-09 22:00:00 20.2 14 Este 28 Nordeste 0 1021.7 0.9 82
2019-06-09 21:00:00 20.7 20 Nordeste 30 Nordeste 0 1021.4 0.7 79
2019-06-09 20:00:00 22.1 18 Nordeste 25 Nordeste 0 1020.9 -0.1 73
2019-06-09 19:00:00 22.9 19 Nordeste 27 Nordeste 0 1020.8 -0.1 67
2019-06-09 18:00:00 23.1 21 Nordeste 31 Nordeste 0 1020.7 -0.2 66
2019-06-09 17:00:00 22.5 25 Nordeste 34 Nordeste 0 1021 -0.1 67
2019-06-09 16:00:00 23.3 26 Nordeste 34 Nordeste 0 1020.9 -1 68
2019-06-09 15:00:00 23.7 24 Nordeste 31 Nordeste 0 1020.9 -1.1 65
2019-06-09 14:00:00 23.5 22 Nordeste 28 Nordeste 0 1021.1 -0.2 62
2019-06-09 13:00:00 22.5 26 Nordeste 34 Este 0 1021.9 0.4 68
2019-06-09 12:00:00 21.9 22 Nordeste 30 Nordeste 0 1022 0.4 70
2019-06-09 11:00:00 22.6 13 Nordeste 23 Este 0 1021.3 -0.2 63
2019-06-09 10:00:00 21.4 14 Nordeste 25 Nordeste 0 1021.5 0.6 68
2019-06-09 09:00:00 19.8 9 Este 21 Nordeste 0 1021.6 0.8 74
2019-06-09 08:00:00 18.6 7 Sudeste 25 Este 0 1021.5 0.7 72
2019-06-09 07:00:00 19.4 15 Este 22 Este 0 1020.9 -0.1 78
2019-06-09 06:00:00 19.3 11 Este 23 Nordeste 0 1020.8 -0.5 80
2019-06-09 05:00:00 18.7 4 Sudeste 15 Sur 0 1020.8 -0.8 69
2019-06-09 04:00:00 19 6 Sudeste 21 Sudeste 0 1021 -0.8 69
2019-06-09 03:00:00 19.7 10 Este 19 Nordeste 0 1021.3 -0.5 78
2019-06-09 02:00:00 19.8 8 Este 20 Nordeste 0 1021.6 0 79
2019-06-09 01:00:00 19.9 14 Este 27 Este 0 1021.8 0.8 79
2019-06-09 00:00:00 20.1 19 Nordeste 26 Este 0 1021.8 1.1 83
2019-06-08 23:00:00 20.5 18 Nordeste 23 Nordeste 0 1021.6 1.6 83
2019-06-08 22:00:00 20.4 9 Este 18 Nordeste 0 1021 1.3 83
2019-06-08 21:00:00 20.6 12 Este 23 Este 0 1020.7 1 82
2019-06-08 20:00:00 21.1 19 Nordeste 25 Nordeste 0 1020 0.4 81
2019-06-08 19:00:00 22 13 Nordeste 16 Este 0 1019.7 -0.1 71
2019-06-08 18:00:00 22.8 10 Nordeste 18 Nordeste 0 1019.7 -0.2 68
2019-06-08 17:00:00 23.1 11 Nordeste 16 Nordeste 0 1019.6 -0.4 67
2019-06-08 16:00:00 22.9 14 Nordeste 18 Nordeste 0 1019.8 -0.1 68
2019-06-08 15:00:00 23.2 14 Nordeste 18 Nordeste 0 1019.9 0.1 71
2019-06-08 14:00:00 22.6 12 Nordeste 20 Este 0 1020 0.4 75
2019-06-08 13:00:00 21.8 17 Nordeste 22 Nordeste 0 1019.9 0.4 81
2019-06-08 12:00:00 22.1 16 Nordeste 25 Nordeste 0 1019.8 0.7 81
2019-06-08 11:00:00 21.5 19 Nordeste 31 Nordeste 0 1019.6 0.8 82
2019-06-08 10:00:00 20.9 22 Nordeste 34 Nordeste 0 1019.5 1.2 88
2019-06-08 09:00:00 20.4 26 Nordeste 33 Nordeste 0 1019.1 1 91
2019-06-08 08:00:00 20.6 0 Calma 9 Norte 0 1018.8 1 92
2019-06-08 07:00:00 20.5 3 Nordeste 14 Nordeste 0 1018.3 0.4 93
2019-06-08 06:00:00 20.5 9 Este 21 Nordeste 0 1018.1 0.2 93
2019-06-08 05:00:00 20.4 9 Nordeste 18 Nordeste 0 1017.8 -0.4 94
2019-06-08 04:00:00 20.2 5 Este 24 Nordeste 0 1017.9 -0.7 95
2019-06-08 03:00:00 20.4 8 Este 19 Nordeste 0 1017.9 -0.6 94
2019-06-08 02:00:00 20.7 5 Este 15 Nordeste 0 1018.2 0.1 91
2019-06-08 01:00:00 20.5 15 Este 22 Este 0 1018.6 1.3 93
2019-06-08 00:00:00 21.5 5 Nordeste 9 Este 0 1018.5 1.4 88
2019-06-07 23:00:00 21.6 4 Este 9 Nordeste 0 1018.1 1.4 87
2019-06-07 22:00:00 21.8 6 Este 9 Este 0 1017.3 0.9 85
2019-06-07 21:00:00 22.5 6 Nordeste 9 Nordeste 0 1017.1 0.6 81
2019-06-07 20:00:00 24.2 7 Nordeste 12 Nordeste 0 1016.7 0.6 74
2019-06-07 19:00:00 24.6 9 Nordeste 14 Nordeste 0 1016.4 -0.2 72
2019-06-07 18:00:00 24.6 10 Nordeste 15 Nordeste 0 1016.5 -0.6 69
2019-06-07 17:00:00 25.6 8 Nordeste 15 Nordeste 0 1016.1 -1.2 67
2019-06-07 16:00:00 24.9 8 Nordeste 12 Nordeste 0 1016.6 -0.9 67
2019-06-07 15:00:00 24.4 5 Nordeste 13 Nordeste 0 1017.1 -0.1 68
2019-06-07 14:00:00 24.3 9 Este 25 Nordeste 0 1017.3 0.2 69
2019-06-07 13:00:00 23.4 9 Nordeste 14 Nordeste 0 1017.5 0.5 70
2019-06-07 12:00:00 22.8 11 Nordeste 18 Norte 0 1017.2 0.2 73
2019-06-07 11:00:00 22.3 13 Nordeste 21 Nordeste 0 1017.1 0.1 72
2019-06-07 10:00:00 22 13 Nordeste 18 Nordeste 0 1017 0.1 74
2019-06-07 09:00:00 20.1 6 Este 13 Este 0 1017 0.4 72
2019-06-07 08:00:00 18.7 6 Sur 15 Sur 0 1017 0.5 76
2019-06-07 07:00:00 17.3 6 Sur 13 Sudeste 0 1016.9 0.5 80
2019-06-07 06:00:00 17.8 6 Sur 13 Sudeste 0 1016.6 -0.4 75
2019-06-07 05:00:00 18.7 8 Sudeste 16 Sur 0 1016.5 -1.3 71
2019-06-07 04:00:00 18.1 5 Sur 17 Sudeste 0 1016.4 -1.7 69
2019-06-07 03:00:00 18.3 7 Sur 19 Sudeste 0 1017 -1.2 68
2019-06-07 02:00:00 18.1 4 Sudeste 13 Sur 0 1017.8 -0.1 69
2019-06-07 01:00:00 18.8 6 Sur 15 Sur 0 1018.1 0.8 66
2019-06-07 00:00:00 18.7 6 Sur 14 Sur 0 1018.2 1.4 69
2019-06-06 23:00:00 19.4 4 Sudeste 12 Este 0 1017.9 1.7 73
2019-06-06 22:00:00 20.1 7 Este 14 Nordeste 0 1017.3 1.3 74
2019-06-06 21:00:00 21 10 Nordeste 14 Nordeste 0 1016.8 0.5 69
2019-06-06 20:00:00 22.5 10 Nordeste 15 Nordeste 0 1016.2 -0.1 68
2019-06-06 19:00:00 22.9 11 Nordeste 15 Nordeste 0 1016 -0.5 64
2019-06-06 18:00:00 23.8 11 Nordeste 17 Nordeste 0 1016.3 -0.3 64
2019-06-06 17:00:00 22.4 12 Nordeste 18 Este 0 1016.3 -0.5 69
2019-06-06 16:00:00 22 9 Nordeste 17 Este 0 1016.5 -0.6 68
2019-06-06 15:00:00 22.5 7 Nordeste 15 Este 0 1016.6 -0.2 68
2019-06-06 14:00:00 22.4 12 Nordeste 23 Este 0 1016.8 0.3 71
2019-06-06 13:00:00 21.3 21 Nordeste 31 Nordeste 0 1017.1 0.4 75
2019-06-06 12:00:00 22.3 17 Nordeste 22 Nordeste 0 1016.8 0.2 69
2019-06-06 11:00:00 22.1 10 Nordeste 15 Nordeste 0 1016.5 0.3 68
2019-06-06 10:00:00 20.7 12 Nordeste 16 Nordeste 0 1016.7 0.4 71
2019-06-06 09:00:00 19.8 6 Este 20 Este 0 1016.6 0.3 79
2019-06-06 08:00:00 19.6 8 Nordeste 15 Nordeste 0 1016.2 -0.1 80
2019-06-06 07:00:00 19.4 12 Nordeste 21 Nordeste 0 1016.3 0 84
2019-06-06 06:00:00 19.7 10 Nordeste 13 Nordeste 0 1016.3 -0.3 84
2019-06-06 05:00:00 19.7 9 Este 20 Este 0 1016.3 -0.9 85
2019-06-06 04:00:00 19.8 8 Este 21 Este 0 1016.3 -1.5 85
2019-06-06 03:00:00 19.7 14 Este 23 Nordeste 0 1016.6 -1.2 87
2019-06-06 02:00:00 19.8 17 Este 23 Nordeste 0 1017.2 -0.4 87
2019-06-06 01:00:00 20.1 12 Nordeste 22 Nordeste 0 1017.8 0.6 91
2019-06-06 00:00:00 20.3 5 Este 15 Este 0 1017.8 1 90
2019-06-05 23:00:00 20.5 10 Este 19 Nordeste 0 1017.6 1.3 89
2019-06-05 22:00:00 20.6 13 Nordeste 19 Este 0 1017.2 1 91
2019-06-05 21:00:00 20.9 11 Este 17 Este 0 1016.8 0.4 89
2019-06-05 20:00:00 21.7 7 Este 13 Nordeste 0 1016.3 -0.3 86
2019-06-05 19:00:00 22.1 9 Nordeste 15 Nordeste 0 1016.2 -0.5 85
2019-06-05 18:00:00 22.3 13 Nordeste 18 Este 0 1016.4 -0.5 85
2019-06-05 17:00:00 22.6 11 Nordeste 17 Este 0 1016.6 -0.5 85
2019-06-05 16:00:00 23.6 11 Nordeste 15 Nordeste 0 1016.7 -0.8 78
2019-06-05 15:00:00 24.5 8 Nordeste 13 Nordeste 0 1016.9 -0.5 76
2019-06-05 14:00:00 24.2 8 Nordeste 13 Nordeste 0 1017.1 -0.2 76
2019-06-05 13:00:00 23.3 11 Nordeste 18 Este 0 1017.5 0.2 82
2019-06-05 12:00:00 22.7 14 Nordeste 26 Nordeste 0 1017.4 0 86
2019-06-05 11:00:00 22.7 19 Nordeste 29 Nordeste 0 1017.3 0.3 88
2019-06-05 10:00:00 21.5 12 Nordeste 26 Nordeste 0 1017.3 0.3 91
2019-06-05 09:00:00 21.1 7 Este 15 Nordeste 0 1017.4 0.5 89
2019-06-05 08:00:00 21 5 Este 12 Nordeste 0 1017 0 83
2019-06-05 07:00:00 19.7 5 Sudeste 10 Sur 0 1017 -0.4 81
2019-06-05 06:00:00 19.7 3 Sudeste 11 Este 0 1016.9 -0.9 86
2019-06-05 05:00:00 20.2 7 Este 15 Este 0 1017 -1.1 95
2019-06-05 04:00:00 20.7 9 Nordeste 14 Nordeste 0 1017.4 -1.3 93
2019-06-05 03:00:00 21.2 8 Este 14 Nordeste 0 1017.8 -1 86
2019-06-05 02:00:00 21.4 0 Calma 8 Este 0 1018.1 -0.5 78
2019-06-05 01:00:00 20.9 4 Sur 9 Nordeste 0 1018.7 0.5 81
2019-06-05 00:00:00 20.9 4 Este 12 Nordeste 0 1018.8 1.3 84
2019-06-04 23:00:00 20.8 5 Este 12 Nordeste 0 1018.6 1.9 88
2019-06-04 22:00:00 21 5 Este 11 Nordeste 0 1018.2 1.6 88
2019-06-04 21:00:00 21.5 6 Este 14 Este 0 1017.5 1 85
2019-06-04 20:00:00 23.6 9 Nordeste 15 Nordeste 0 1016.7 0.1 77
2019-06-04 19:00:00 24.7 12 Nordeste 16 Nordeste 0 1016.6 0.1 72
2019-06-04 18:00:00 25.2 14 Nordeste 17 Nordeste 0 1016.5 -0.8 72
2019-06-04 17:00:00 25 12 Nordeste 20 Nordeste 0 1016.6 -0.6 72
2019-06-04 16:00:00 25.3 13 Nordeste 20 Nordeste 0 1016.5 -0.9 72
2019-06-04 15:00:00 24.4 17 Nordeste 25 Nordeste 0 1017.3 0 77
2019-06-04 14:00:00 24.4 15 Nordeste 20 Este 0 1017.2 0.2 77
2019-06-04 13:00:00 25 9 Nordeste 14 Nordeste 0 1017.4 0.5 78
2019-06-04 12:00:00 24.6 11 Nordeste 14 Nordeste 0 1017.3 1 80
2019-06-04 11:00:00 23.8 8 Nordeste 12 Nordeste 0 1017 0.7 82
2019-06-04 10:00:00 22.6 7 Nordeste 10 Nordeste 0 1016.9 0.9 81
2019-06-04 09:00:00 21.9 5 Nordeste 8 Nordeste 0 1016.3 0.9 87
2019-06-04 08:00:00 19.7 0 Calma 9 Sudeste 0 1016.3 0.9 85
2019-06-04 07:00:00 19.4 3 Sudeste 7 Sur 0 1016 0.5 85
2019-06-04 06:00:00 20.2 3 Sudoeste 6 Sudoeste 0 1015.4 -0.6 84
2019-06-04 05:00:00 19.2 0 Calma 8 Sudoeste 0 1015.4 -1.2 84
2019-06-04 04:00:00 19.7 3 Sudoeste 5 Sudeste 0 1015.5 -1.5 77
2019-06-04 03:00:00 20.1 0 Calma 8 Sudoeste 0 1016 -1.1 92
2019-06-04 02:00:00 19.9 0 Calma 5 Sudoeste 0 1016.6 -0.5 91
2019-06-04 01:00:00 20.7 0 Calma 8 Oeste 0 1017 0.7 95
2019-06-04 00:00:00 21 2 Oeste 14 Norte 0 1017.1 1.5 95
2019-06-03 23:00:00 20.9 9 Nordeste 17 Nordeste 0 1017.1 2 96
2019-06-03 22:00:00 21.3 13 Nordeste 17 Nordeste 0 1016.3 1.7 95
2019-06-03 21:00:00 21.9 14 Nordeste 20 Nordeste 0 1015.6 1.1 93
2019-06-03 20:00:00 23.3 14 Nordeste 18 Nordeste 0 1015.1 0.4 88
2019-06-03 19:00:00 24.2 14 Nordeste 18 Este 0 1014.6 -0.1 85
2019-06-03 18:00:00 24.8 14 Nordeste 17 Nordeste 0 1014.5 -0.2 81
2019-06-03 17:00:00 25.7 13 Nordeste 19 Nordeste 0 1014.7 -0.2 79
2019-06-03 16:00:00 25.7 14 Nordeste 17 Nordeste 0 1014.7 -0.2 77
2019-06-03 15:00:00 26 12 Nordeste 15 Nordeste 0 1014.7 -0.1 78
2019-06-03 14:00:00 25.7 10 Nordeste 14 Nordeste 0 1014.9 0.3 78
2019-06-03 13:00:00 25.1 12 Nordeste 15 Nordeste 0 1014.9 0.4 81
2019-06-03 12:00:00 24.6 8 Nordeste 14 Nordeste 0 1014.8 0.6 82
2019-06-03 11:00:00 23.5 7 Este 11 Este 0 1014.6 0.5 83
2019-06-03 10:00:00 21.8 3 Norte 6 Nordeste 0 1014.5 0.8 88
2019-06-03 09:00:00 21.6 2 Noroeste 4 Noroeste 0 1014.2 0.6 88
2019-06-03 08:00:00 20.3 0 Calma 6 Sudeste 0 1014.1 0.4 88
2019-06-03 07:00:00 19.4 2 Sudeste 12 Sudoeste 0 1013.7 0 90
2019-06-03 06:00:00 20.5 7 Sudoeste 14 Sudoeste 0 1013.6 -0.1 92
2019-06-03 05:00:00 20.6 5 Sudoeste 15 Sudoeste 0 1013.7 -1.1 94
2019-06-03 04:00:00 20.4 5 Sudoeste 17 Sudoeste 0 1013.7 -1.8 96
2019-06-03 03:00:00 20.7 3 Oeste 9 Oeste 0 1013.7 -1.7 96
2019-06-03 02:00:00 21 3 Sudoeste 12 Noroeste 0 1014.8 0.3 97
2019-06-03 01:00:00 21.3 0 Calma 17 Nordeste 0 1015.5 1.7 95
2019-06-03 00:00:00 21.3 10 Nordeste 15 Este 0 1015.4 2.2 95
2019-06-02 23:00:00 21.5 7 Nordeste 11 Este 0 1014.5 2.2 93
2019-06-02 22:00:00 21.8 8 Nordeste 15 Nordeste 0 1013.8 2 93
2019-06-02 21:00:00 22.2 8 Nordeste 13 Nordeste 0 1013.2 1.7 90
2019-06-02 20:00:00 23.2 10 Nordeste 14 Nordeste 0 1012.3 1 86
2019-06-02 19:00:00 25.3 8 Nordeste 13 Nordeste 0 1011.8 0.3 79
2019-06-02 18:00:00 25.4 11 Nordeste 16 Nordeste 0 1011.5 -0.5 77
2019-06-02 17:00:00 25.9 11 Nordeste 14 Nordeste 0 1011.3 -1.1 74
2019-06-02 16:00:00 25.9 9 Nordeste 13 Nordeste 0 1011.5 -1.4 74
2019-06-02 15:00:00 25.7 10 Nordeste 16 Nordeste 0 1012 0 76
2019-06-02 14:00:00 24.9 10 Nordeste 13 Nordeste 0 1012.4 0.2 76
2019-06-02 13:00:00 24.1 9 Nordeste 15 Norte 0 1012.9 0.7 81
2019-06-02 12:00:00 24 9 Nordeste 13 Nordeste 0 1012 -0.4 80
2019-06-02 11:00:00 23.1 8 Nordeste 15 Nordeste 0 1012.2 0.4 83
2019-06-02 10:00:00 22.2 5 Nordeste 10 Nordeste 0 1012.2 0.6 86
2019-06-02 09:00:00 20.6 0 Calma 10 Nordeste 0 1012.4 1 91
2019-06-02 08:00:00 20.3 2 Este 9 Este 0 1011.8 0.7 91
2019-06-02 07:00:00 19.8 0 Calma 8 Sur 0 1011.6 0.4 91
2019-06-02 06:00:00 20 3 Sur 8 Sudeste 0 1011.4 -0.2 91
2019-06-02 05:00:00 20.3 2 Sur 5 Sur 0 1011.1 -1.1 90
2019-06-02 04:00:00 19.9 2 Sur 8 Este 0 1011.2 -1.4 89
2019-06-02 03:00:00 20.5 0 Calma 9 Nordeste 0 1011.6 -1 88
2019-06-02 02:00:00 20.9 4 Nordeste 14 Nordeste 0 1012.2 0.2 89
2019-06-02 01:00:00 21.2 0 Calma 14 Este 0 1012.6 1.2 87
2019-06-02 00:00:00 21.3 10 Nordeste 20 Nordeste 0 1012.6 1.5 88
2019-06-01 23:00:00 21.3 14 Nordeste 17 Nordeste 0 1012 1.6 88
2019-06-01 22:00:00 21.7 9 Nordeste 13 Nordeste 0 1011.4 1.3 87
2019-06-01 21:00:00 21.5 4 Nordeste 12 Nordeste 0 1011.1 0.7 87
2019-06-01 20:00:00 22.5 7 Nordeste 10 Nordeste 0 1010.4 -0.3 84
2019-06-01 19:00:00 23.1 6 Nordeste 13 Nordeste 0 1010.1 -1 82
2019-06-01 18:00:00 24 9 Nordeste 13 Norte 0 1010.4 -1 78
2019-06-01 17:00:00 23.2 9 Nordeste 14 Norte 0 1010.7 -1 79
2019-06-01 16:00:00 23.3 8 Norte 12 Norte 0 1011.1 -0.9 81
2019-06-01 15:00:00 24.1 8 Nordeste 14 Norte 0 1011.4 -0.8 76
2019-06-01 14:00:00 23.7 8 Nordeste 12 Nordeste 0 1011.7 -0.8 76
2019-06-01 13:00:00 22.4 6 Nordeste 22 Nordeste 0 1012 -0.1 81
2019-06-01 12:00:00 22.9 6 Nordeste 10 Nordeste 0 1012.2 0.7 80
2019-06-01 11:00:00 21.4 6 Nordeste 9 Nordeste 0 1012.5 1.1 86
2019-06-01 10:00:00 21 3 Nordeste 11 Este 0 1012.1 1 87
2019-06-01 09:00:00 20.1 5 Este 13 Este 0 1011.5 0.5 87
2019-06-01 08:00:00 19.9 3 Sur 12 Sudeste 0 1011.4 -0.1 87
2019-06-01 07:00:00 19.7 2 Sur 8 Sudeste 0 1011.1 -0.8 87
2019-06-01 06:00:00 19.8 0 Calma 8 Este 0 1011 -0.9 88
2019-06-01 05:00:00 20.1 6 Este 13 Nordeste 0 1011.5 -0.6 89
2019-06-01 04:00:00 20.2 3 Este 15 Nordeste 0 1011.9 -0.9 89
2019-06-01 03:00:00 20.4 9 Nordeste 13 Nordeste 0 1011.9 -0.9 90
2019-06-01 02:00:00 20.6 10 Nordeste 14 Nordeste 0 1012.1 -0.3 89
2019-06-01 01:00:00 20.9 5 Nordeste 15 Nordeste 0 1012.8 0.9 89
2019-06-01 00:00:00 21.2 6 Nordeste 15 Nordeste 0 1012.8 1.3 88
2019-05-31 23:00:00 20.9 4 Norte 14 Nordeste 0 1012.4 1.5 89
2019-05-31 22:00:00 21.7 7 Nordeste 10 Nordeste 0 1011.9 1 87
2019-05-31 21:00:00 22.1 7 Nordeste 9 Nordeste 0 1011.5 0.3 85
2019-05-31 20:00:00 24.1 4 Nordeste 10 Nordeste 0 1010.9 -0.7 76
2019-05-31 19:00:00 25 7 Nordeste 10 Nordeste 0 1010.9 -1.6 73
2019-05-31 18:00:00 25.7 7 Nordeste 13 Este 0 1011.2 -1.2 69
2019-05-31 17:00:00 25.5 9 Nordeste 14 Nordeste 0 1011.6 -1.3 67
2019-05-31 16:00:00 23.8 12 Nordeste 17 Nordeste 0 1012.5 -0.3 74
2019-05-31 15:00:00 24 8 Nordeste 12 Nordeste 0 1012.4 -0.9 72
2019-05-31 14:00:00 22.5 6 Nordeste 10 Norte 0 1012.9 -0.5 75
2019-05-31 13:00:00 23 6 Nordeste 11 Nordeste 0 1012.8 -0.1 73
2019-05-31 12:00:00 22.2 9 Nordeste 12 Nordeste 0 1013.3 0.4 77
2019-05-31 11:00:00 20.9 7 Norte 13 Norte 0 1013.4 0.8 79
2019-05-31 10:00:00 22 6 Nordeste 15 Nordeste 0 1012.9 0.4 77
2019-05-31 09:00:00 19.8 2 Nordeste 6 Sur 0 1012.9 0.4 83
2019-05-31 08:00:00 19.1 0 Calma 10 Sur 0 1012.6 0.1 85
2019-05-31 07:00:00 18.6 3 Sur 11 Sur 0 1012.5 -0.4 84
2019-05-31 06:00:00 19 4 Sur 13 Sudeste 0 1012.5 -1 83
2019-05-31 05:00:00 19.3 3 Este 12 Sudeste 0 1012.5 -1.3 83
2019-05-31 04:00:00 19.4 3 Este 13 Nordeste 0 1012.9 -1.3 85
2019-05-31 03:00:00 19.9 5 Nordeste 11 Nordeste 0 1013.5 -1 85
2019-05-31 02:00:00 20 6 Este 11 Nordeste 0 1013.8 -0.6 85
2019-05-31 01:00:00 20.2 7 Este 15 Nordeste 0 1014.2 -0.1 85
2019-05-31 00:00:00 20.6 12 Nordeste 15 Nordeste 0 1014.5 0.7 85
2019-05-30 23:00:00 21.1 9 Nordeste 12 Nordeste 0 1014.4 1 83
2019-05-30 22:00:00 21.1 4 Nordeste 8 Nordeste 0 1014.3 1.1 84
2019-05-30 21:00:00 21.2 6 Nordeste 14 Este 0 1013.8 0.5 83
2019-05-30 20:00:00 22 9 Nordeste 13 Nordeste 0 1013.4 0.3 79
2019-05-30 19:00:00 22.6 8 Nordeste 14 Norte 0 1013.2 -0.4 76
2019-05-30 18:00:00 22.7 10 Nordeste 14 Norte 0 1013.3 -0.2 72
2019-05-30 17:00:00 25.4 9 Nordeste 14 Nordeste 0 1013.1 -0.9 66
2019-05-30 16:00:00 24.5 10 Nordeste 17 Nordeste 0 1013.6 -0.8 68
2019-05-30 15:00:00 24.9 12 Nordeste 16 Nordeste 0 1013.5 -0.8 67
2019-05-30 14:00:00 22.7 12 Nordeste 16 Nordeste 0 1014 -0.4 71
2019-05-30 13:00:00 23 8 Nordeste 14 Nordeste 0 1014.4 0 70
2019-05-30 12:00:00 23.3 10 Nordeste 13 Este 0 1014.3 0 70
2019-05-30 11:00:00 21.2 7 Nordeste 14 Norte 0 1014.4 0.2 73
2019-05-30 10:00:00 20.8 8 Nordeste 17 Nordeste 0 1014.4 0.6 74
2019-05-30 09:00:00 20.1 5 Nordeste 12 Nordeste 0 1014.3 0.6 82
2019-05-30 08:00:00 19.4 3 Sur 8 Sur 0 1014.2 0.3 81
2019-05-30 07:00:00 19.2 2 Sudeste 9 Sudeste 0 1013.8 0 82
2019-05-30 06:00:00 19.5 2 Sudeste 9 Sudeste 0 1013.7 -0.8 81
2019-05-30 05:00:00 19.4 3 Sudeste 10 Sur 0 1013.9 -1.2 80
2019-05-30 04:00:00 19.4 3 Sudeste 12 Sudeste 0 1013.8 -1.6 80
2019-05-30 03:00:00 19.8 3 Este 12 Sudeste 0 1014.5 -1.3 81
2019-05-30 02:00:00 19.7 9 Nordeste 14 Nordeste 0 1015.1 -0.7 82
2019-05-30 01:00:00 19.9 3 Norte 18 Nordeste 0 1015.4 0.3 82
2019-05-30 00:00:00 20.3 10 Nordeste 16 Norte 0 1015.8 1.2 83
2019-05-29 23:00:00 20.2 9 Nordeste 19 Nordeste 0 1015.8 2 84
2019-05-29 22:00:00 21 9 Nordeste 13 Nordeste 0 1015.1 1.7 83
2019-05-29 21:00:00 21.1 8 Nordeste 12 Nordeste 0 1014.6 1.1 80
2019-05-29 20:00:00 23 10 Nordeste 13 Este 0 1013.8 0.2 72
2019-05-29 19:00:00 23.6 10 Nordeste 15 Nordeste 0 1013.4 -0.3 68
2019-05-29 18:00:00 24.3 9 Nordeste 15 Nordeste 0 1013.5 -0.7 66
2019-05-29 17:00:00 25 11 Nordeste 17 Nordeste 0 1013.6 -1 64
2019-05-29 16:00:00 24.5 12 Nordeste 18 Nordeste 0 1013.7 -1.8 65
2019-05-29 15:00:00 24.2 12 Nordeste 16 Nordeste 0 1014.2 -1.4 66
2019-05-29 14:00:00 23.9 11 Nordeste 17 Nordeste 0 1014.6 -1.2 68
2019-05-29 13:00:00 22.1 10 Nordeste 14 Norte 0 1015.5 0 72
2019-05-29 12:00:00 22.1 9 Nordeste 15 Nordeste 0 1015.6 0.1 76
2019-05-29 11:00:00 21.4 11 Nordeste 17 Nordeste 0 1015.8 0.4 80
2019-05-29 10:00:00 20.3 11 Nordeste 15 Este 0 1015.5 0.6 83
2019-05-29 09:00:00 19.8 2 Este 9 Este 0 1015.5 0.7 82
2019-05-29 08:00:00 19.3 2 Sudeste 12 Sudeste 0 1015.4 0.8 82
2019-05-29 07:00:00 19 5 Sudeste 14 Sudeste 0 1014.9 0 82
2019-05-29 06:00:00 19.1 3 Sur 8 Sur 0 1014.8 -0.4 82
2019-05-29 05:00:00 19 4 Sudeste 11 Sudeste 0 1014.6 -1 82
2019-05-29 04:00:00 19.6 2 Sudeste 12 Sur 0 1014.9 -1.2 81
2019-05-29 03:00:00 19.9 2 Este 9 Sudeste 0 1015.2 -0.7 82
2019-05-29 02:00:00 20 5 Este 14 Este 0 1015.6 0 82
2019-05-29 01:00:00 20.2 6 Nordeste 18 Nordeste 0 1016.1 1 83
2019-05-29 00:00:00 20.3 14 Nordeste 21 Nordeste 0 1015.9 1.1 84
2019-05-28 23:00:00 20.5 16 Nordeste 21 Nordeste 0 1015.6 1.3 86
2019-05-28 22:00:00 20.7 15 Nordeste 20 Nordeste 0 1015.1 1.2 86
2019-05-28 21:00:00 20.8 13 Nordeste 19 Nordeste 0 1014.8 0.9 88
2019-05-28 20:00:00 21.5 12 Nordeste 21 Este 0 1014.3 0.6 82
2019-05-28 19:00:00 22.5 10 Nordeste 16 Nordeste 0 1013.9 0.1 80
2019-05-28 18:00:00 23.7 14 Nordeste 18 Nordeste 0 1013.9 -0.1 72
2019-05-28 17:00:00 24.6 14 Nordeste 21 Nordeste 0 1013.7 -0.6 72
2019-05-28 16:00:00 24.3 15 Nordeste 22 Nordeste 0 1013.8 -0.9 72
2019-05-28 15:00:00 23.6 18 Nordeste 24 Nordeste 0 1014 -1 73
2019-05-28 14:00:00 23.1 21 Nordeste 26 Nordeste 0 1014.3 -0.6 76
2019-05-28 13:00:00 23 20 Nordeste 25 Nordeste 0 1014.7 -0.2 78
2019-05-28 12:00:00 22 16 Nordeste 22 Nordeste 0 1015 0.3 82
2019-05-28 11:00:00 21.5 17 Nordeste 23 Nordeste 0 1014.9 0.4 85
2019-05-28 10:00:00 20.8 15 Nordeste 22 Nordeste 0 1014.9 0.6 87
2019-05-28 09:00:00 20 14 Nordeste 22 Nordeste 0 1014.7 1 92
2019-05-28 08:00:00 19.5 2 Sudeste 7 Sur 0 1014.5 0.8 87
2019-05-28 07:00:00 19.2 0 Calma 7 Sudeste 0 1014.3 0.5 87
2019-05-28 06:00:00 19.6 3 Este 8 Este 0 1013.7 -0.3 90
2019-05-28 05:00:00 19.4 2 Sudeste 8 Este 0 1013.7 -0.7 90
2019-05-28 04:00:00 18.9 3 Sudeste 10 Sudeste 0 1013.8 -0.7 91
2019-05-28 03:00:00 19.1 3 Sudeste 8 Sudeste 0 1014 -0.3 91
2019-05-28 02:00:00 19.2 2 Sudeste 8 Este 0 1014.4 0 91
2019-05-28 01:00:00 19.5 2 Este 10 Nordeste 0 1014.5 0.6 92
2019-05-28 00:00:00 20.1 6 Nordeste 11 Nordeste 0 1014.3 1 93
2019-05-27 23:00:00 20.5 8 Nordeste 18 Nordeste 0 1014.4 1.3 92
2019-05-27 22:00:00 20.7 12 Nordeste 16 Nordeste 0 1013.9 1.3 91
2019-05-27 21:00:00 21 13 Nordeste 18 Este 0 1013.3 0.8 90
2019-05-27 20:00:00 21.7 12 Nordeste 19 Nordeste 0 1013.1 0.3 88
2019-05-27 19:00:00 23.3 15 Nordeste 18 Nordeste 0 1012.6 -0.4 81
2019-05-27 18:00:00 24.5 15 Nordeste 19 Nordeste 0 1012.5 -0.5 77
2019-05-27 17:00:00 24.1 13 Nordeste 18 Nordeste 0 1012.8 -0.3 77
2019-05-27 16:00:00 24.7 14 Nordeste 19 Nordeste 0 1013 -0.5 75
2019-05-27 15:00:00 24.5 14 Nordeste 17 Nordeste 0 1013 -0.6 74
2019-05-27 14:00:00 24.5 14 Nordeste 17 Nordeste 0 1013.1 -0.5 75
2019-05-27 13:00:00 23.7 13 Nordeste 17 Nordeste 0 1013.5 -0.7 77
2019-05-27 12:00:00 23 14 Nordeste 18 Nordeste 0 1013.6 -0.2 80
2019-05-27 11:00:00 22.3 13 Nordeste 15 Nordeste 0 1013.6 -0.2 81
2019-05-27 10:00:00 20.3 4 Este 18 Este 0 1014.2 0.7 88
2019-05-27 09:00:00 19.9 7 Este 13 Este 0 1013.8 0.6 88
2019-05-27 08:00:00 18.7 3 Sudeste 9 Sur 0 1013.8 0.5 87
2019-05-27 07:00:00 18.9 3 Sur 10 Sur 0 1013.5 -0.3 87
2019-05-27 06:00:00 18.4 4 Sur 12 Sur 0 1013.2 -1.1 87
2019-05-27 05:00:00 18.2 3 Sur 12 Sudeste 0 1013.3 -1.5 89
2019-05-27 04:00:00 18.2 5 Sur 12 Sur 0 1013.8 -1.3 90
2019-05-27 03:00:00 18.5 6 Sudeste 10 Sudeste 0 1014.3 -0.9 87
2019-05-27 02:00:00 18.7 5 Sur 11 Sudeste 0 1014.8 -0.2 87
2019-05-27 01:00:00 18.4 5 Sur 14 Sudeste 0 1015.1 0.9 87
2019-05-27 00:00:00 19.2 2 Sur 14 Este 0 1015.2 1.5 89